sensor_id;sensor_type;location;lat;lon;timestamp;P1;durP1;ratioP1;P2;durP2;ratioP2
842;SDS011;407;48.884;9.126;2022-11-20T00:03:43;21.42;;;8.02;;
842;SDS011;407;48.884;9.126;2022-11-20T00:06:11;25.35;;;8.90;;
842;SDS011;407;48.884;9.126;2022-11-20T00:08:39;24.80;;;7.70;;
842;SDS011;407;48.884;9.126;2022-11-20T00:11:05;19.58;;;8.18;;
842;SDS011;407;48.884;9.126;2022-11-20T00:13:32;22.40;;;8.10;;
842;SDS011;407;48.884;9.126;2022-11-20T00:16:00;22.20;;;7.70;;
842;SDS011;407;48.884;9.126;2022-11-20T00:18:26;16.55;;;7.25;;
842;SDS011;407;48.884;9.126;2022-11-20T00:20:52;13.30;;;5.78;;
842;SDS011;407;48.884;9.126;2022-11-20T00:23:18;16.50;;;7.13;;
842;SDS011;407;48.884;9.126;2022-11-20T00:25:44;17.40;;;6.65;;
842;SDS011;407;48.884;9.126;2022-11-20T00:28:10;17.40;;;7.53;;
842;SDS011;407;48.884;9.126;2022-11-20T00:30:35;18.03;;;6.90;;
842;SDS011;407;48.884;9.126;2022-11-20T00:33:01;15.23;;;6.97;;
842;SDS011;407;48.884;9.126;2022-11-20T00:35:26;20.97;;;7.20;;
842;SDS011;407;48.884;9.126;2022-11-20T00:37:52;16.27;;;7.13;;
842;SDS011;407;48.884;9.126;2022-11-20T00:40:17;14.57;;;6.10;;
842;SDS011;407;48.884;9.126;2022-11-20T00:42:43;17.77;;;7.65;;
842;SDS011;407;48.884;9.126;2022-11-20T00:45:08;16.40;;;7.20;;
842;SDS011;407;48.884;9.126;2022-11-20T00:47:34;12.57;;;5.30;;
842;SDS011;407;48.884;9.126;2022-11-20T00:50:00;12.50;;;5.80;;
842;SDS011;407;48.884;9.126;2022-11-20T00:52:25;14.07;;;6.27;;
842;SDS011;407;48.884;9.126;2022-11-20T00:54:51;14.20;;;6.47;;
842;SDS011;407;48.884;9.126;2022-11-20T00:57:16;13.27;;;5.97;;
842;SDS011;407;48.884;9.126;2022-11-20T00:59:42;14.40;;;6.38;;
842;SDS011;407;48.884;9.126;2022-11-20T01:02:07;12.97;;;5.30;;
842;SDS011;407;48.884;9.126;2022-11-20T01:04:33;10.88;;;5.57;;
842;SDS011;407;48.884;9.126;2022-11-20T01:06:59;13.57;;;5.90;;
842;SDS011;407;48.884;9.126;2022-11-20T01:09:24;13.38;;;6.07;;
842;SDS011;407;48.884;9.126;2022-11-20T01:11:50;19.93;;;6.70;;
842;SDS011;407;48.884;9.126;2022-11-20T01:14:16;18.65;;;6.55;;
842;SDS011;407;48.884;9.126;2022-11-20T01:16:45;14.02;;;6.32;;
842;SDS011;407;48.884;9.126;2022-11-20T01:19:14;13.38;;;5.88;;
842;SDS011;407;48.884;9.126;2022-11-20T01:21:42;15.35;;;6.63;;
842;SDS011;407;48.884;9.126;2022-11-20T01:24:13;17.45;;;7.80;;
842;SDS011;407;48.884;9.126;2022-11-20T01:26:41;14.20;;;6.68;;
842;SDS011;407;48.884;9.126;2022-11-20T01:29:10;16.40;;;7.40;;
842;SDS011;407;48.884;9.126;2022-11-20T01:31:39;16.60;;;6.50;;
842;SDS011;407;48.884;9.126;2022-11-20T01:34:05;17.75;;;7.72;;
842;SDS011;407;48.884;9.126;2022-11-20T01:36:33;15.88;;;7.03;;
842;SDS011;407;48.884;9.126;2022-11-20T01:39:02;14.63;;;6.78;;
842;SDS011;407;48.884;9.126;2022-11-20T01:41:30;16.90;;;7.30;;
842;SDS011;407;48.884;9.126;2022-11-20T01:44:16;16.42;;;7.15;;
842;SDS011;407;48.884;9.126;2022-11-20T01:46:55;15.43;;;7.10;;
842;SDS011;407;48.884;9.126;2022-11-20T01:49:39;16.30;;;6.72;;
842;SDS011;407;48.884;9.126;2022-11-20T01:52:15;15.25;;;6.90;;
842;SDS011;407;48.884;9.126;2022-11-20T01:54:46;14.10;;;6.97;;
842;SDS011;407;48.884;9.126;2022-11-20T01:57:16;17.23;;;6.93;;
842;SDS011;407;48.884;9.126;2022-11-20T01:59:46;16.65;;;7.03;;
842;SDS011;407;48.884;9.126;2022-11-20T02:02:19;14.30;;;6.40;;
842;SDS011;407;48.884;9.126;2022-11-20T02:04:45;15.35;;;7.25;;
842;SDS011;407;48.884;9.126;2022-11-20T02:07:12;15.35;;;7.03;;
842;SDS011;407;48.884;9.126;2022-11-20T02:09:39;14.65;;;6.45;;
842;SDS011;407;48.884;9.126;2022-11-20T02:12:04;12.50;;;5.40;;
842;SDS011;407;48.884;9.126;2022-11-20T02:14:50;13.38;;;6.00;;
842;SDS011;407;48.884;9.126;2022-11-20T02:17:16;11.93;;;5.45;;
842;SDS011;407;48.884;9.126;2022-11-20T02:19:42;11.53;;;5.50;;
842;SDS011;407;48.884;9.126;2022-11-20T02:22:09;10.75;;;4.78;;
842;SDS011;407;48.884;9.126;2022-11-20T02:24:45;9.23;;;3.95;;
842;SDS011;407;48.884;9.126;2022-11-20T02:27:14;8.13;;;3.50;;
842;SDS011;407;48.884;9.126;2022-11-20T02:29:42;10.10;;;4.25;;
842;SDS011;407;48.884;9.126;2022-11-20T02:34:51;9.27;;;3.50;;
842;SDS011;407;48.884;9.126;2022-11-20T02:37:17;8.18;;;3.47;;
842;SDS011;407;48.884;9.126;2022-11-20T02:39:44;8.17;;;3.00;;
842;SDS011;407;48.884;9.126;2022-11-20T02:42:12;7.15;;;2.75;;
842;SDS011;407;48.884;9.126;2022-11-20T02:44:38;9.20;;;3.13;;
842;SDS011;407;48.884;9.126;2022-11-20T02:47:04;6.32;;;2.53;;
842;SDS011;407;48.884;9.126;2022-11-20T02:49:29;7.75;;;2.38;;
842;SDS011;407;48.884;9.126;2022-11-20T02:51:55;6.30;;;2.40;;
842;SDS011;407;48.884;9.126;2022-11-20T02:54:21;8.25;;;2.55;;
842;SDS011;407;48.884;9.126;2022-11-20T02:56:47;7.07;;;2.60;;
842;SDS011;407;48.884;9.126;2022-11-20T02:59:13;7.10;;;2.50;;
842;SDS011;407;48.884;9.126;2022-11-20T03:01:38;5.93;;;2.30;;
842;SDS011;407;48.884;9.126;2022-11-20T03:04:04;6.57;;;2.30;;
842;SDS011;407;48.884;9.126;2022-11-20T03:06:29;7.28;;;2.60;;
842;SDS011;407;48.884;9.126;2022-11-20T03:08:55;7.85;;;2.95;;
842;SDS011;407;48.884;9.126;2022-11-20T03:11:21;6.33;;;2.30;;
842;SDS011;407;48.884;9.126;2022-11-20T03:13:46;6.47;;;2.53;;
842;SDS011;407;48.884;9.126;2022-11-20T03:16:13;6.57;;;2.30;;
842;SDS011;407;48.884;9.126;2022-11-20T03:18:41;7.53;;;2.47;;
842;SDS011;407;48.884;9.126;2022-11-20T03:21:07;6.45;;;2.60;;
842;SDS011;407;48.884;9.126;2022-11-20T03:23:35;7.75;;;2.70;;
842;SDS011;407;48.884;9.126;2022-11-20T03:26:14;7.40;;;2.90;;
842;SDS011;407;48.884;9.126;2022-11-20T03:28:51;7.28;;;2.50;;
842;SDS011;407;48.884;9.126;2022-11-20T03:31:20;7.63;;;2.55;;
842;SDS011;407;48.884;9.126;2022-11-20T03:33:47;5.75;;;2.30;;
842;SDS011;407;48.884;9.126;2022-11-20T03:36:13;9.40;;;3.03;;
842;SDS011;407;48.884;9.126;2022-11-20T03:38:40;8.65;;;3.03;;
842;SDS011;407;48.884;9.126;2022-11-20T03:41:10;7.00;;;2.78;;
842;SDS011;407;48.884;9.126;2022-11-20T03:43:38;7.38;;;2.70;;
842;SDS011;407;48.884;9.126;2022-11-20T03:46:04;6.93;;;2.60;;
842;SDS011;407;48.884;9.126;2022-11-20T03:48:30;8.10;;;3.00;;
842;SDS011;407;48.884;9.126;2022-11-20T03:51:06;8.60;;;2.72;;
842;SDS011;407;48.884;9.126;2022-11-20T03:53:36;6.55;;;2.40;;
842;SDS011;407;48.884;9.126;2022-11-20T03:56:02;6.63;;;2.60;;
842;SDS011;407;48.884;9.126;2022-11-20T03:58:28;8.40;;;2.72;;
842;SDS011;407;48.884;9.126;2022-11-20T04:00:53;7.90;;;2.70;;
842;SDS011;407;48.884;9.126;2022-11-20T04:03:19;7.00;;;2.70;;
842;SDS011;407;48.884;9.126;2022-11-20T04:05:45;6.53;;;2.67;;
842;SDS011;407;48.884;9.126;2022-11-20T04:08:10;7.90;;;3.07;;
842;SDS011;407;48.884;9.126;2022-11-20T04:10:36;7.03;;;2.63;;
842;SDS011;407;48.884;9.126;2022-11-20T04:13:02;8.20;;;3.22;;
842;SDS011;407;48.884;9.126;2022-11-20T04:15:28;8.23;;;3.30;;
842;SDS011;407;48.884;9.126;2022-11-20T04:17:53;7.63;;;2.73;;
842;SDS011;407;48.884;9.126;2022-11-20T04:20:19;9.63;;;2.58;;
842;SDS011;407;48.884;9.126;2022-11-20T04:22:45;8.67;;;2.90;;
842;SDS011;407;48.884;9.126;2022-11-20T04:25:10;7.18;;;2.78;;
842;SDS011;407;48.884;9.126;2022-11-20T04:27:36;7.40;;;2.80;;
842;SDS011;407;48.884;9.126;2022-11-20T04:30:02;7.18;;;3.00;;
842;SDS011;407;48.884;9.126;2022-11-20T04:32:28;7.60;;;2.60;;
842;SDS011;407;48.884;9.126;2022-11-20T04:34:53;9.63;;;3.33;;
842;SDS011;407;48.884;9.126;2022-11-20T04:37:19;7.10;;;2.70;;
842;SDS011;407;48.884;9.126;2022-11-20T04:39:44;8.17;;;3.10;;
842;SDS011;407;48.884;9.126;2022-11-20T04:42:10;7.80;;;2.70;;
842;SDS011;407;48.884;9.126;2022-11-20T04:44:54;7.93;;;3.10;;
842;SDS011;407;48.884;9.126;2022-11-20T04:47:20;6.05;;;2.00;;
842;SDS011;407;48.884;9.126;2022-11-20T04:49:46;7.23;;;3.23;;
842;SDS011;407;48.884;9.126;2022-11-20T04:52:12;9.68;;;2.95;;
842;SDS011;407;48.884;9.126;2022-11-20T04:54:38;8.00;;;3.10;;
842;SDS011;407;48.884;9.126;2022-11-20T04:57:03;7.25;;;2.90;;
842;SDS011;407;48.884;9.126;2022-11-20T04:59:29;8.10;;;2.90;;
842;SDS011;407;48.884;9.126;2022-11-20T05:01:55;7.88;;;3.10;;
842;SDS011;407;48.884;9.126;2022-11-20T05:04:20;7.60;;;3.10;;
842;SDS011;407;48.884;9.126;2022-11-20T05:06:46;6.53;;;2.45;;
842;SDS011;407;48.884;9.126;2022-11-20T05:09:12;7.27;;;2.77;;
842;SDS011;407;48.884;9.126;2022-11-20T05:11:37;8.75;;;3.33;;
842;SDS011;407;48.884;9.126;2022-11-20T05:14:03;8.60;;;3.40;;
842;SDS011;407;48.884;9.126;2022-11-20T05:16:29;7.90;;;3.30;;
842;SDS011;407;48.884;9.126;2022-11-20T05:18:55;7.20;;;2.78;;
842;SDS011;407;48.884;9.126;2022-11-20T05:21:20;8.15;;;3.28;;
842;SDS011;407;48.884;9.126;2022-11-20T05:23:46;6.97;;;2.95;;
842;SDS011;407;48.884;9.126;2022-11-20T05:26:14;6.97;;;2.60;;
842;SDS011;407;48.884;9.126;2022-11-20T05:28:45;7.10;;;2.70;;
842;SDS011;407;48.884;9.126;2022-11-20T05:31:20;7.85;;;2.63;;
842;SDS011;407;48.884;9.126;2022-11-20T05:33:47;6.70;;;2.60;;
842;SDS011;407;48.884;9.126;2022-11-20T05:36:14;6.45;;;2.60;;
842;SDS011;407;48.884;9.126;2022-11-20T05:38:40;7.88;;;3.03;;
842;SDS011;407;48.884;9.126;2022-11-20T05:41:07;7.07;;;2.80;;
842;SDS011;407;48.884;9.126;2022-11-20T05:43:38;8.43;;;2.70;;
842;SDS011;407;48.884;9.126;2022-11-20T05:46:06;10.60;;;3.00;;
842;SDS011;407;48.884;9.126;2022-11-20T05:48:33;9.95;;;3.25;;
842;SDS011;407;48.884;9.126;2022-11-20T05:51:02;8.02;;;2.90;;
842;SDS011;407;48.884;9.126;2022-11-20T05:53:28;6.80;;;2.80;;
842;SDS011;407;48.884;9.126;2022-11-20T05:56:08;7.18;;;2.90;;
842;SDS011;407;48.884;9.126;2022-11-20T05:58:36;10.43;;;2.80;;
842;SDS011;407;48.884;9.126;2022-11-20T06:01:06;6.57;;;2.72;;
842;SDS011;407;48.884;9.126;2022-11-20T06:03:38;9.50;;;2.90;;
842;SDS011;407;48.884;9.126;2022-11-20T06:06:05;10.18;;;2.97;;
842;SDS011;407;48.884;9.126;2022-11-20T06:08:31;6.90;;;2.90;;
842;SDS011;407;48.884;9.126;2022-11-20T06:10:57;9.18;;;3.03;;
842;SDS011;407;48.884;9.126;2022-11-20T06:13:23;9.20;;;2.90;;
842;SDS011;407;48.884;9.126;2022-11-20T06:15:52;7.30;;;2.63;;
842;SDS011;407;48.884;9.126;2022-11-20T06:18:18;7.35;;;2.90;;
842;SDS011;407;48.884;9.126;2022-11-20T06:20:44;7.10;;;2.70;;
842;SDS011;407;48.884;9.126;2022-11-20T06:23:11;7.80;;;2.80;;
842;SDS011;407;48.884;9.126;2022-11-20T06:25:38;6.90;;;2.65;;
842;SDS011;407;48.884;9.126;2022-11-20T06:28:07;6.18;;;2.47;;
842;SDS011;407;48.884;9.126;2022-11-20T06:30:33;6.78;;;2.55;;
842;SDS011;407;48.884;9.126;2022-11-20T06:32:59;7.30;;;2.50;;
842;SDS011;407;48.884;9.126;2022-11-20T06:35:25;6.00;;;2.40;;
842;SDS011;407;48.884;9.126;2022-11-20T06:37:51;7.47;;;2.75;;
842;SDS011;407;48.884;9.126;2022-11-20T06:40:16;6.20;;;2.70;;
842;SDS011;407;48.884;9.126;2022-11-20T06:42:42;6.95;;;2.50;;
842;SDS011;407;48.884;9.126;2022-11-20T06:45:08;6.57;;;2.20;;
842;SDS011;407;48.884;9.126;2022-11-20T06:47:34;6.75;;;2.08;;
842;SDS011;407;48.884;9.126;2022-11-20T06:49:59;7.55;;;2.60;;
842;SDS011;407;48.884;9.126;2022-11-20T06:52:25;8.27;;;2.70;;
842;SDS011;407;48.884;9.126;2022-11-20T06:54:50;7.10;;;2.72;;
842;SDS011;407;48.884;9.126;2022-11-20T06:57:16;6.20;;;2.50;;
842;SDS011;407;48.884;9.126;2022-11-20T06:59:42;6.97;;;2.38;;
842;SDS011;407;48.884;9.126;2022-11-20T07:02:09;7.10;;;2.67;;
842;SDS011;407;48.884;9.126;2022-11-20T07:04:38;5.80;;;2.10;;
842;SDS011;407;48.884;9.126;2022-11-20T07:07:04;7.10;;;2.60;;
842;SDS011;407;48.884;9.126;2022-11-20T07:09:31;8.32;;;2.75;;
842;SDS011;407;48.884;9.126;2022-11-20T07:11:57;7.10;;;2.20;;
842;SDS011;407;48.884;9.126;2022-11-20T07:14:22;8.43;;;2.63;;
842;SDS011;407;48.884;9.126;2022-11-20T07:16:48;7.00;;;2.30;;
842;SDS011;407;48.884;9.126;2022-11-20T07:19:14;7.30;;;2.40;;
842;SDS011;407;48.884;9.126;2022-11-20T07:21:39;6.47;;;2.50;;
842;SDS011;407;48.884;9.126;2022-11-20T07:24:05;7.00;;;2.20;;
842;SDS011;407;48.884;9.126;2022-11-20T07:26:30;5.37;;;1.70;;
842;SDS011;407;48.884;9.126;2022-11-20T07:28:56;5.00;;;1.60;;
842;SDS011;407;48.884;9.126;2022-11-20T07:31:22;5.40;;;1.80;;
842;SDS011;407;48.884;9.126;2022-11-20T07:33:47;8.20;;;1.90;;
842;SDS011;407;48.884;9.126;2022-11-20T07:36:13;5.47;;;1.70;;
842;SDS011;407;48.884;9.126;2022-11-20T07:38:39;5.63;;;1.98;;
842;SDS011;407;48.884;9.126;2022-11-20T07:41:04;6.60;;;1.87;;
842;SDS011;407;48.884;9.126;2022-11-20T07:43:30;6.57;;;1.60;;
842;SDS011;407;48.884;9.126;2022-11-20T07:45:56;6.77;;;2.27;;
842;SDS011;407;48.884;9.126;2022-11-20T07:48:23;6.10;;;1.90;;
842;SDS011;407;48.884;9.126;2022-11-20T07:50:49;5.40;;;1.70;;
842;SDS011;407;48.884;9.126;2022-11-20T07:53:18;5.50;;;1.75;;
842;SDS011;407;48.884;9.126;2022-11-20T07:55:45;6.05;;;1.88;;
842;SDS011;407;48.884;9.126;2022-11-20T07:58:12;7.70;;;2.20;;
842;SDS011;407;48.884;9.126;2022-11-20T08:00:39;5.80;;;1.98;;
842;SDS011;407;48.884;9.126;2022-11-20T08:03:05;5.10;;;1.83;;
842;SDS011;407;48.884;9.126;2022-11-20T08:05:31;6.30;;;2.00;;
842;SDS011;407;48.884;9.126;2022-11-20T08:07:57;6.65;;;1.95;;
842;SDS011;407;48.884;9.126;2022-11-20T08:10:22;8.20;;;2.10;;
842;SDS011;407;48.884;9.126;2022-11-20T08:12:49;5.72;;;1.98;;
842;SDS011;407;48.884;9.126;2022-11-20T08:15:34;5.28;;;1.52;;
842;SDS011;407;48.884;9.126;2022-11-20T08:18:02;5.72;;;1.70;;
842;SDS011;407;48.884;9.126;2022-11-20T08:20:30;4.90;;;1.20;;
842;SDS011;407;48.884;9.126;2022-11-20T08:22:59;6.03;;;1.50;;
842;SDS011;407;48.884;9.126;2022-11-20T08:25:32;6.13;;;1.37;;
842;SDS011;407;48.884;9.126;2022-11-20T08:27:59;5.07;;;1.17;;
842;SDS011;407;48.884;9.126;2022-11-20T08:30:25;4.95;;;1.00;;
842;SDS011;407;48.884;9.126;2022-11-20T08:32:52;4.30;;;0.90;;
842;SDS011;407;48.884;9.126;2022-11-20T08:35:18;4.30;;;0.90;;
842;SDS011;407;48.884;9.126;2022-11-20T08:37:47;5.10;;;0.80;;
842;SDS011;407;48.884;9.126;2022-11-20T08:40:13;4.00;;;0.50;;
842;SDS011;407;48.884;9.126;2022-11-20T08:42:49;5.32;;;0.60;;
842;SDS011;407;48.884;9.126;2022-11-20T08:45:15;3.92;;;0.55;;
842;SDS011;407;48.884;9.126;2022-11-20T08:47:42;4.25;;;0.80;;
842;SDS011;407;48.884;9.126;2022-11-20T08:50:09;4.30;;;0.60;;
842;SDS011;407;48.884;9.126;2022-11-20T08:52:36;4.03;;;0.70;;
842;SDS011;407;48.884;9.126;2022-11-20T08:55:02;3.90;;;0.68;;
842;SDS011;407;48.884;9.126;2022-11-20T08:57:30;3.70;;;0.50;;
842;SDS011;407;48.884;9.126;2022-11-20T08:59:59;4.00;;;0.60;;
842;SDS011;407;48.884;9.126;2022-11-20T09:02:25;3.72;;;0.50;;
842;SDS011;407;48.884;9.126;2022-11-20T09:04:51;4.20;;;0.67;;
842;SDS011;407;48.884;9.126;2022-11-20T09:07:18;4.28;;;0.77;;
842;SDS011;407;48.884;9.126;2022-11-20T09:09:44;4.13;;;0.70;;
842;SDS011;407;48.884;9.126;2022-11-20T09:12:09;3.80;;;0.60;;
842;SDS011;407;48.884;9.126;2022-11-20T09:14:35;4.10;;;0.50;;
842;SDS011;407;48.884;9.126;2022-11-20T09:17:01;4.30;;;0.80;;
842;SDS011;407;48.884;9.126;2022-11-20T09:19:26;3.85;;;0.60;;
842;SDS011;407;48.884;9.126;2022-11-20T09:21:52;3.80;;;0.50;;
842;SDS011;407;48.884;9.126;2022-11-20T09:24:18;6.00;;;0.70;;
842;SDS011;407;48.884;9.126;2022-11-20T09:26:45;4.43;;;0.90;;
842;SDS011;407;48.884;9.126;2022-11-20T09:29:11;3.88;;;0.50;;
842;SDS011;407;48.884;9.126;2022-11-20T09:31:36;5.00;;;0.80;;
842;SDS011;407;48.884;9.126;2022-11-20T09:34:02;3.70;;;0.40;;
842;SDS011;407;48.884;9.126;2022-11-20T09:36:28;4.00;;;0.70;;
842;SDS011;407;48.884;9.126;2022-11-20T09:38:53;4.40;;;0.60;;
842;SDS011;407;48.884;9.126;2022-11-20T09:41:28;4.00;;;0.60;;
842;SDS011;407;48.884;9.126;2022-11-20T09:47:12;4.00;;;0.75;;
842;SDS011;407;48.884;9.126;2022-11-20T09:53:08;4.43;;;0.70;;
842;SDS011;407;48.884;9.126;2022-11-20T09:55:36;4.10;;;0.80;;
842;SDS011;407;48.884;9.126;2022-11-20T09:58:05;4.20;;;0.70;;
842;SDS011;407;48.884;9.126;2022-11-20T10:00:35;4.07;;;0.80;;
842;SDS011;407;48.884;9.126;2022-11-20T10:03:03;4.50;;;0.80;;
842;SDS011;407;48.884;9.126;2022-11-20T10:05:48;5.20;;;1.10;;
842;SDS011;407;48.884;9.126;2022-11-20T10:08:25;5.00;;;1.20;;
842;SDS011;407;48.884;9.126;2022-11-20T10:11:04;5.10;;;1.00;;
842;SDS011;407;48.884;9.126;2022-11-20T10:13:58;5.50;;;1.30;;
842;SDS011;407;48.884;9.126;2022-11-20T10:19:54;5.30;;;1.30;;
842;SDS011;407;48.884;9.126;2022-11-20T10:22:32;4.95;;;1.30;;
842;SDS011;407;48.884;9.126;2022-11-20T10:25:22;5.50;;;1.60;;
842;SDS011;407;48.884;9.126;2022-11-20T10:30:55;4.30;;;1.02;;
842;SDS011;407;48.884;9.126;2022-11-20T10:33:26;4.40;;;1.10;;
842;SDS011;407;48.884;9.126;2022-11-20T10:36:13;4.90;;;1.10;;
842;SDS011;407;48.884;9.126;2022-11-20T10:38:55;5.00;;;1.00;;
842;SDS011;407;48.884;9.126;2022-11-20T10:41:27;4.60;;;1.05;;
842;SDS011;407;48.884;9.126;2022-11-20T10:44:15;4.40;;;1.00;;
842;SDS011;407;48.884;9.126;2022-11-20T10:47:13;4.38;;;0.80;;
842;SDS011;407;48.884;9.126;2022-11-20T10:49:40;3.97;;;0.80;;
842;SDS011;407;48.884;9.126;2022-11-20T10:53:12;4.25;;;1.10;;
842;SDS011;407;48.884;9.126;2022-11-20T11:01:14;4.88;;;1.60;;
842;SDS011;407;48.884;9.126;2022-11-20T11:03:42;5.40;;;1.60;;
842;SDS011;407;48.884;9.126;2022-11-20T11:06:12;5.38;;;1.30;;
842;SDS011;407;48.884;9.126;2022-11-20T11:08:48;5.18;;;1.40;;
842;SDS011;407;48.884;9.126;2022-11-20T11:11:23;5.30;;;1.80;;
842;SDS011;407;48.884;9.126;2022-11-20T11:13:52;6.73;;;2.50;;
842;SDS011;407;48.884;9.126;2022-11-20T11:16:22;5.90;;;2.10;;
842;SDS011;407;48.884;9.126;2022-11-20T11:18:50;6.97;;;1.90;;
842;SDS011;407;48.884;9.126;2022-11-20T11:21:21;5.20;;;1.60;;
842;SDS011;407;48.884;9.126;2022-11-20T11:24:00;5.40;;;1.70;;
842;SDS011;407;48.884;9.126;2022-11-20T11:26:29;7.50;;;2.20;;
842;SDS011;407;48.884;9.126;2022-11-20T11:31:25;5.30;;;2.10;;
842;SDS011;407;48.884;9.126;2022-11-20T11:36:56;5.40;;;1.80;;
842;SDS011;407;48.884;9.126;2022-11-20T11:39:23;9.40;;;2.00;;
842;SDS011;407;48.884;9.126;2022-11-20T11:41:49;5.95;;;1.70;;
842;SDS011;407;48.884;9.126;2022-11-20T11:44:20;5.18;;;1.50;;
842;SDS011;407;48.884;9.126;2022-11-20T11:47:12;5.20;;;1.50;;
842;SDS011;407;48.884;9.126;2022-11-20T11:52:39;5.50;;;1.37;;
842;SDS011;407;48.884;9.126;2022-11-20T12:00:41;8.18;;;1.35;;
842;SDS011;407;48.884;9.126;2022-11-20T12:05:47;10.18;;;1.45;;
842;SDS011;407;48.884;9.126;2022-11-20T12:08:23;6.00;;;1.40;;
842;SDS011;407;48.884;9.126;2022-11-20T12:11:02;5.70;;;1.30;;
842;SDS011;407;48.884;9.126;2022-11-20T12:16:05;4.50;;;1.00;;
842;SDS011;407;48.884;9.126;2022-11-20T12:18:35;6.63;;;1.10;;
842;SDS011;407;48.884;9.126;2022-11-20T12:21:08;5.10;;;1.00;;
842;SDS011;407;48.884;9.126;2022-11-20T12:38:06;5.50;;;1.10;;
842;SDS011;407;48.884;9.126;2022-11-20T12:43:27;4.35;;;0.70;;
842;SDS011;407;48.884;9.126;2022-11-20T12:46:18;4.80;;;1.15;;
842;SDS011;407;48.884;9.126;2022-11-20T12:54:52;4.90;;;0.77;;
842;SDS011;407;48.884;9.126;2022-11-20T13:00:07;7.10;;;1.30;;
842;SDS011;407;48.884;9.126;2022-11-20T13:08:25;4.80;;;0.90;;
842;SDS011;407;48.884;9.126;2022-11-20T13:10:56;4.13;;;0.50;;
842;SDS011;407;48.884;9.126;2022-11-20T13:16:24;4.50;;;0.80;;
842;SDS011;407;48.884;9.126;2022-11-20T13:19:03;4.67;;;0.80;;
842;SDS011;407;48.884;9.126;2022-11-20T13:21:37;5.70;;;1.10;;
842;SDS011;407;48.884;9.126;2022-11-20T13:24:06;4.70;;;0.80;;
842;SDS011;407;48.884;9.126;2022-11-20T13:26:44;6.50;;;0.83;;
842;SDS011;407;48.884;9.126;2022-11-20T13:29:11;4.80;;;0.80;;
842;SDS011;407;48.884;9.126;2022-11-20T13:31:43;4.55;;;0.88;;
842;SDS011;407;48.884;9.126;2022-11-20T13:34:23;6.10;;;0.80;;
842;SDS011;407;48.884;9.126;2022-11-20T13:36:52;4.60;;;0.70;;
842;SDS011;407;48.884;9.126;2022-11-20T13:39:29;4.45;;;0.60;;
842;SDS011;407;48.884;9.126;2022-11-20T13:41:57;5.10;;;0.93;;
842;SDS011;407;48.884;9.126;2022-11-20T13:46:59;4.60;;;0.90;;
842;SDS011;407;48.884;9.126;2022-11-20T13:52:04;5.60;;;0.82;;
842;SDS011;407;48.884;9.126;2022-11-20T13:59:57;3.95;;;0.40;;
842;SDS011;407;48.884;9.126;2022-11-20T14:02:35;4.80;;;0.70;;
842;SDS011;407;48.884;9.126;2022-11-20T14:05:01;5.90;;;0.95;;
842;SDS011;407;48.884;9.126;2022-11-20T14:07:33;4.30;;;0.70;;
842;SDS011;407;48.884;9.126;2022-11-20T14:10:02;5.40;;;0.80;;
842;SDS011;407;48.884;9.126;2022-11-20T14:12:30;4.70;;;0.80;;
842;SDS011;407;48.884;9.126;2022-11-20T14:14:57;4.70;;;0.70;;
842;SDS011;407;48.884;9.126;2022-11-20T14:17:29;5.00;;;0.70;;
842;SDS011;407;48.884;9.126;2022-11-20T14:19:58;4.90;;;0.80;;
842;SDS011;407;48.884;9.126;2022-11-20T14:22:29;4.60;;;0.70;;
842;SDS011;407;48.884;9.126;2022-11-20T14:25:03;4.60;;;0.80;;
842;SDS011;407;48.884;9.126;2022-11-20T14:27:59;4.20;;;0.68;;
842;SDS011;407;48.884;9.126;2022-11-20T14:30:48;5.35;;;0.88;;
842;SDS011;407;48.884;9.126;2022-11-20T14:33:13;5.20;;;0.90;;
842;SDS011;407;48.884;9.126;2022-11-20T14:35:42;5.30;;;1.00;;
842;SDS011;407;48.884;9.126;2022-11-20T14:38:12;5.30;;;1.00;;
842;SDS011;407;48.884;9.126;2022-11-20T14:40:40;4.95;;;1.00;;
842;SDS011;407;48.884;9.126;2022-11-20T14:48:28;4.97;;;1.00;;
842;SDS011;407;48.884;9.126;2022-11-20T14:50:57;5.80;;;0.90;;
842;SDS011;407;48.884;9.126;2022-11-20T14:53:24;5.70;;;1.00;;
842;SDS011;407;48.884;9.126;2022-11-20T14:55:57;5.00;;;1.00;;
842;SDS011;407;48.884;9.126;2022-11-20T14:58:26;5.10;;;1.10;;
842;SDS011;407;48.884;9.126;2022-11-20T15:01:04;7.28;;;1.70;;
842;SDS011;407;48.884;9.126;2022-11-20T15:03:38;5.70;;;1.35;;
842;SDS011;407;48.884;9.126;2022-11-20T15:06:05;6.28;;;1.35;;
842;SDS011;407;48.884;9.126;2022-11-20T15:08:33;4.72;;;1.08;;
842;SDS011;407;48.884;9.126;2022-11-20T15:10:59;4.88;;;1.15;;
842;SDS011;407;48.884;9.126;2022-11-20T15:13:29;6.65;;;1.13;;
842;SDS011;407;48.884;9.126;2022-11-20T15:16:01;7.17;;;1.30;;
842;SDS011;407;48.884;9.126;2022-11-20T15:18:46;7.38;;;1.30;;
842;SDS011;407;48.884;9.126;2022-11-20T15:21:13;7.53;;;1.67;;
842;SDS011;407;48.884;9.126;2022-11-20T15:23:40;6.35;;;1.38;;
842;SDS011;407;48.884;9.126;2022-11-20T15:26:07;5.78;;;1.30;;
842;SDS011;407;48.884;9.126;2022-11-20T15:28:41;7.20;;;1.40;;
842;SDS011;407;48.884;9.126;2022-11-20T15:31:12;8.88;;;1.40;;
842;SDS011;407;48.884;9.126;2022-11-20T15:33:39;6.78;;;1.40;;
842;SDS011;407;48.884;9.126;2022-11-20T15:36:05;6.77;;;1.27;;
842;SDS011;407;48.884;9.126;2022-11-20T15:38:30;5.83;;;1.40;;
842;SDS011;407;48.884;9.126;2022-11-20T15:40:56;5.80;;;1.38;;
842;SDS011;407;48.884;9.126;2022-11-20T15:43:22;5.43;;;1.60;;
842;SDS011;407;48.884;9.126;2022-11-20T15:45:49;5.40;;;1.70;;
842;SDS011;407;48.884;9.126;2022-11-20T15:48:19;5.20;;;1.40;;
842;SDS011;407;48.884;9.126;2022-11-20T15:50:52;5.05;;;1.40;;
842;SDS011;407;48.884;9.126;2022-11-20T15:53:22;6.28;;;1.50;;
842;SDS011;407;48.884;9.126;2022-11-20T15:55:48;6.07;;;2.17;;
842;SDS011;407;48.884;9.126;2022-11-20T15:58:14;5.38;;;1.20;;
842;SDS011;407;48.884;9.126;2022-11-20T16:00:41;6.40;;;2.05;;
842;SDS011;407;48.884;9.126;2022-11-20T16:03:09;7.50;;;2.20;;
842;SDS011;407;48.884;9.126;2022-11-20T16:05:35;6.30;;;1.50;;
842;SDS011;407;48.884;9.126;2022-11-20T16:08:01;7.70;;;2.00;;
842;SDS011;407;48.884;9.126;2022-11-20T16:10:27;7.50;;;2.33;;
842;SDS011;407;48.884;9.126;2022-11-20T16:12:52;8.02;;;2.22;;
842;SDS011;407;48.884;9.126;2022-11-20T16:15:36;7.15;;;2.10;;
842;SDS011;407;48.884;9.126;2022-11-20T16:18:12;7.70;;;2.28;;
842;SDS011;407;48.884;9.126;2022-11-20T16:20:39;5.97;;;2.10;;
842;SDS011;407;48.884;9.126;2022-11-20T16:23:05;6.10;;;2.00;;
842;SDS011;407;48.884;9.126;2022-11-20T16:25:32;6.90;;;2.30;;
842;SDS011;407;48.884;9.126;2022-11-20T16:27:58;7.50;;;2.10;;
842;SDS011;407;48.884;9.126;2022-11-20T16:30:23;6.15;;;1.92;;
842;SDS011;407;48.884;9.126;2022-11-20T16:32:49;5.80;;;2.20;;
842;SDS011;407;48.884;9.126;2022-11-20T16:35:15;7.10;;;1.80;;
842;SDS011;407;48.884;9.126;2022-11-20T16:37:40;5.95;;;1.70;;
842;SDS011;407;48.884;9.126;2022-11-20T16:40:08;5.43;;;1.50;;
842;SDS011;407;48.884;9.126;2022-11-20T16:42:34;6.88;;;1.73;;
842;SDS011;407;48.884;9.126;2022-11-20T16:45:01;6.95;;;2.00;;
842;SDS011;407;48.884;9.126;2022-11-20T16:47:27;7.60;;;2.10;;
842;SDS011;407;48.884;9.126;2022-11-20T16:49:52;5.40;;;1.50;;
842;SDS011;407;48.884;9.126;2022-11-20T16:52:18;5.68;;;2.00;;
842;SDS011;407;48.884;9.126;2022-11-20T16:54:44;6.80;;;1.80;;
842;SDS011;407;48.884;9.126;2022-11-20T16:57:09;7.20;;;2.17;;
842;SDS011;407;48.884;9.126;2022-11-20T16:59:35;6.10;;;1.90;;
842;SDS011;407;48.884;9.126;2022-11-20T17:02:00;7.90;;;1.93;;
842;SDS011;407;48.884;9.126;2022-11-20T17:04:26;6.60;;;2.03;;
842;SDS011;407;48.884;9.126;2022-11-20T17:06:51;5.77;;;2.30;;
842;SDS011;407;48.884;9.126;2022-11-20T17:09:17;5.70;;;1.75;;
842;SDS011;407;48.884;9.126;2022-11-20T17:11:43;6.40;;;2.00;;
842;SDS011;407;48.884;9.126;2022-11-20T17:14:09;7.53;;;1.90;;
842;SDS011;407;48.884;9.126;2022-11-20T17:16:35;6.90;;;2.10;;
842;SDS011;407;48.884;9.126;2022-11-20T17:19:02;5.70;;;1.85;;
842;SDS011;407;48.884;9.126;2022-11-20T17:21:29;5.45;;;1.80;;
842;SDS011;407;48.884;9.126;2022-11-20T17:23:58;6.82;;;2.00;;
842;SDS011;407;48.884;9.126;2022-11-20T17:26:26;6.70;;;1.95;;